sensor_id;sensor_type;location;lat;lon;timestamp;P1;durP1;ratioP1;P2;durP2;ratioP2
34142;SDS011;20419;10.658;106.724;2023-04-09T00:00:08;6.15;;;5.07;;
34142;SDS011;20419;10.658;106.724;2023-04-09T00:02:35;6.38;;;4.57;;
34142;SDS011;20419;10.658;106.724;2023-04-09T00:05:02;6.55;;;4.47;;
34142;SDS011;20419;10.658;106.724;2023-04-09T00:07:29;6.40;;;5.03;;
34142;SDS011;20419;10.658;106.724;2023-04-09T00:09:56;6.20;;;4.93;;
34142;SDS011;20419;10.658;106.724;2023-04-09T00:12:23;6.10;;;4.65;;
34142;SDS011;20419;10.658;106.724;2023-04-09T00:14:51;6.68;;;4.80;;
34142;SDS011;20419;10.658;106.724;2023-04-09T00:17:17;6.40;;;5.07;;
34142;SDS011;20419;10.658;106.724;2023-04-09T00:19:44;5.72;;;4.80;;
34142;SDS011;20419;10.658;106.724;2023-04-09T00:22:11;6.80;;;5.10;;
34142;SDS011;20419;10.658;106.724;2023-04-09T00:24:38;5.60;;;4.47;;
34142;SDS011;20419;10.658;106.724;2023-04-09T00:27:05;5.97;;;4.70;;
34142;SDS011;20419;10.658;106.724;2023-04-09T00:29:31;5.53;;;4.80;;
34142;SDS011;20419;10.658;106.724;2023-04-09T00:31:58;6.18;;;5.00;;
34142;SDS011;20419;10.658;106.724;2023-04-09T00:34:25;6.20;;;4.53;;
34142;SDS011;20419;10.658;106.724;2023-04-09T00:36:52;5.60;;;4.35;;
34142;SDS011;20419;10.658;106.724;2023-04-09T00:39:18;6.68;;;5.00;;
34142;SDS011;20419;10.658;106.724;2023-04-09T00:41:45;6.13;;;4.68;;
34142;SDS011;20419;10.658;106.724;2023-04-09T00:44:12;6.43;;;4.85;;
34142;SDS011;20419;10.658;106.724;2023-04-09T00:46:39;7.07;;;4.63;;
34142;SDS011;20419;10.658;106.724;2023-04-09T00:49:05;5.57;;;4.60;;
34142;SDS011;20419;10.658;106.724;2023-04-09T00:51:32;6.15;;;4.97;;
34142;SDS011;20419;10.658;106.724;2023-04-09T00:54:00;6.93;;;4.43;;
34142;SDS011;20419;10.658;106.724;2023-04-09T00:56:27;6.75;;;5.15;;
34142;SDS011;20419;10.658;106.724;2023-04-09T00:58:54;7.03;;;5.10;;
34142;SDS011;20419;10.658;106.724;2023-04-09T01:01:21;7.40;;;4.90;;
34142;SDS011;20419;10.658;106.724;2023-04-09T01:03:47;6.82;;;4.45;;
34142;SDS011;20419;10.658;106.724;2023-04-09T01:08:47;6.03;;;4.93;;
34142;SDS011;20419;10.658;106.724;2023-04-09T01:11:19;6.15;;;4.97;;
34142;SDS011;20419;10.658;106.724;2023-04-09T01:16:22;5.78;;;4.47;;
34142;SDS011;20419;10.658;106.724;2023-04-09T01:21:18;5.68;;;4.43;;
34142;SDS011;20419;10.658;106.724;2023-04-09T01:28:54;5.68;;;4.60;;
34142;SDS011;20419;10.658;106.724;2023-04-09T01:31:54;6.60;;;4.87;;
34142;SDS011;20419;10.658;106.724;2023-04-09T01:34:15;7.72;;;4.80;;
34142;SDS011;20419;10.658;106.724;2023-04-09T01:36:44;7.65;;;5.05;;
34142;SDS011;20419;10.658;106.724;2023-04-09T01:39:11;6.25;;;4.80;;
34142;SDS011;20419;10.658;106.724;2023-04-09T01:41:38;6.60;;;4.65;;
34142;SDS011;20419;10.658;106.724;2023-04-09T01:44:05;6.13;;;4.75;;
34142;SDS011;20419;10.658;106.724;2023-04-09T01:46:33;5.50;;;4.40;;
34142;SDS011;20419;10.658;106.724;2023-04-09T01:49:00;6.57;;;4.53;;
34142;SDS011;20419;10.658;106.724;2023-04-09T01:51:28;5.15;;;4.32;;
34142;SDS011;20419;10.658;106.724;2023-04-09T01:53:56;9.43;;;4.90;;
34142;SDS011;20419;10.658;106.724;2023-04-09T01:56:22;4.72;;;3.90;;
34142;SDS011;20419;10.658;106.724;2023-04-09T01:58:50;5.25;;;4.40;;
34142;SDS011;20419;10.658;106.724;2023-04-09T02:01:28;5.70;;;4.32;;
34142;SDS011;20419;10.658;106.724;2023-04-09T02:04:01;5.03;;;4.00;;
34142;SDS011;20419;10.658;106.724;2023-04-09T02:06:38;5.88;;;4.35;;
34142;SDS011;20419;10.658;106.724;2023-04-09T02:09:06;6.20;;;4.50;;
34142;SDS011;20419;10.658;106.724;2023-04-09T02:11:36;5.60;;;4.20;;
34142;SDS011;20419;10.658;106.724;2023-04-09T02:14:03;5.38;;;4.75;;
34142;SDS011;20419;10.658;106.724;2023-04-09T02:16:35;6.93;;;4.40;;
34142;SDS011;20419;10.658;106.724;2023-04-09T02:19:02;6.70;;;4.38;;
34142;SDS011;20419;10.658;106.724;2023-04-09T02:21:29;6.95;;;4.75;;
34142;SDS011;20419;10.658;106.724;2023-04-09T02:23:56;5.82;;;4.47;;
34142;SDS011;20419;10.658;106.724;2023-04-09T02:26:22;8.80;;;4.45;;
34142;SDS011;20419;10.658;106.724;2023-04-09T02:28:49;6.72;;;4.53;;
34142;SDS011;20419;10.658;106.724;2023-04-09T02:31:16;5.35;;;4.55;;
34142;SDS011;20419;10.658;106.724;2023-04-09T02:33:43;5.18;;;4.60;;
34142;SDS011;20419;10.658;106.724;2023-04-09T02:36:10;5.80;;;4.38;;
34142;SDS011;20419;10.658;106.724;2023-04-09T02:38:39;5.47;;;4.10;;
34142;SDS011;20419;10.658;106.724;2023-04-09T02:41:06;5.28;;;4.50;;
34142;SDS011;20419;10.658;106.724;2023-04-09T02:43:33;6.32;;;4.70;;
34142;SDS011;20419;10.658;106.724;2023-04-09T02:46:00;5.50;;;4.15;;
34142;SDS011;20419;10.658;106.724;2023-04-09T02:48:27;5.80;;;4.68;;
34142;SDS011;20419;10.658;106.724;2023-04-09T02:50:54;5.32;;;4.05;;
34142;SDS011;20419;10.658;106.724;2023-04-09T02:53:21;6.10;;;3.92;;
34142;SDS011;20419;10.658;106.724;2023-04-09T02:55:47;7.30;;;4.90;;
34142;SDS011;20419;10.658;106.724;2023-04-09T02:58:14;6.65;;;4.55;;
34142;SDS011;20419;10.658;106.724;2023-04-09T03:00:41;5.97;;;4.70;;
34142;SDS011;20419;10.658;106.724;2023-04-09T03:03:08;7.30;;;4.97;;
34142;SDS011;20419;10.658;106.724;2023-04-09T03:05:34;5.40;;;4.45;;
34142;SDS011;20419;10.658;106.724;2023-04-09T03:08:02;7.43;;;5.43;;
34142;SDS011;20419;10.658;106.724;2023-04-09T03:10:29;6.97;;;5.05;;
34142;SDS011;20419;10.658;106.724;2023-04-09T03:12:55;6.38;;;4.72;;
34142;SDS011;20419;10.658;106.724;2023-04-09T03:15:22;7.95;;;5.72;;
34142;SDS011;20419;10.658;106.724;2023-04-09T03:17:49;5.93;;;5.05;;
34142;SDS011;20419;10.658;106.724;2023-04-09T03:20:16;6.75;;;4.50;;
34142;SDS011;20419;10.658;106.724;2023-04-09T03:22:42;7.40;;;4.55;;
34142;SDS011;20419;10.658;106.724;2023-04-09T03:25:09;6.60;;;5.25;;
34142;SDS011;20419;10.658;106.724;2023-04-09T03:27:36;7.38;;;4.93;;
34142;SDS011;20419;10.658;106.724;2023-04-09T03:30:03;6.40;;;4.78;;
34142;SDS011;20419;10.658;106.724;2023-04-09T03:32:30;8.57;;;5.15;;
34142;SDS011;20419;10.658;106.724;2023-04-09T03:34:57;9.98;;;5.57;;
34142;SDS011;20419;10.658;106.724;2023-04-09T03:37:24;7.22;;;4.90;;
34142;SDS011;20419;10.658;106.724;2023-04-09T03:39:51;9.10;;;6.13;;
34142;SDS011;20419;10.658;106.724;2023-04-09T03:42:18;9.63;;;6.15;;
34142;SDS011;20419;10.658;106.724;2023-04-09T03:44:44;7.93;;;5.85;;
34142;SDS011;20419;10.658;106.724;2023-04-09T03:47:11;7.40;;;5.65;;
34142;SDS011;20419;10.658;106.724;2023-04-09T03:49:38;7.78;;;5.78;;
34142;SDS011;20419;10.658;106.724;2023-04-09T03:52:05;7.53;;;5.78;;
34142;SDS011;20419;10.658;106.724;2023-04-09T03:54:32;9.45;;;6.93;;
34142;SDS011;20419;10.658;106.724;2023-04-09T03:56:59;9.32;;;7.50;;
34142;SDS011;20419;10.658;106.724;2023-04-09T03:59:25;14.57;;;10.07;;
34142;SDS011;20419;10.658;106.724;2023-04-09T04:01:52;15.88;;;11.70;;
34142;SDS011;20419;10.658;106.724;2023-04-09T04:04:19;25.58;;;16.27;;
34142;SDS011;20419;10.658;106.724;2023-04-09T04:06:46;36.45;;;23.23;;
34142;SDS011;20419;10.658;106.724;2023-04-09T04:09:12;60.90;;;34.42;;
34142;SDS011;20419;10.658;106.724;2023-04-09T04:11:39;75.18;;;39.95;;
34142;SDS011;20419;10.658;106.724;2023-04-09T04:14:06;119.30;;;61.20;;
34142;SDS011;20419;10.658;106.724;2023-04-09T04:16:33;126.53;;;67.47;;
34142;SDS011;20419;10.658;106.724;2023-04-09T04:19:00;150.95;;;73.25;;
34142;SDS011;20419;10.658;106.724;2023-04-09T04:21:26;153.20;;;72.45;;
34142;SDS011;20419;10.658;106.724;2023-04-09T04:23:53;168.77;;;85.43;;
34142;SDS011;20419;10.658;106.724;2023-04-09T04:26:20;181.75;;;88.82;;
34142;SDS011;20419;10.658;106.724;2023-04-09T04:28:47;192.52;;;89.30;;
34142;SDS011;20419;10.658;106.724;2023-04-09T04:31:14;192.40;;;87.50;;
34142;SDS011;20419;10.658;106.724;2023-04-09T04:33:41;225.23;;;93.53;;
34142;SDS011;20419;10.658;106.724;2023-04-09T04:36:11;227.35;;;96.10;;
34142;SDS011;20419;10.658;106.724;2023-04-09T04:38:38;226.20;;;95.10;;
34142;SDS011;20419;10.658;106.724;2023-04-09T04:41:09;239.43;;;99.38;;
34142;SDS011;20419;10.658;106.724;2023-04-09T04:43:36;251.63;;;104.67;;
34142;SDS011;20419;10.658;106.724;2023-04-09T04:46:03;270.08;;;108.68;;
34142;SDS011;20419;10.658;106.724;2023-04-09T04:48:30;301.63;;;118.18;;
34142;SDS011;20419;10.658;106.724;2023-04-09T04:50:58;326.98;;;121.50;;
34142;SDS011;20419;10.658;106.724;2023-04-09T04:53:25;315.55;;;117.85;;
34142;SDS011;20419;10.658;106.724;2023-04-09T04:55:52;326.95;;;118.40;;
34142;SDS011;20419;10.658;106.724;2023-04-09T04:58:19;341.67;;;129.18;;
34142;SDS011;20419;10.658;106.724;2023-04-09T05:00:46;356.73;;;129.13;;
34142;SDS011;20419;10.658;106.724;2023-04-09T05:03:12;368.13;;;131.73;;
34142;SDS011;20419;10.658;106.724;2023-04-09T05:05:39;341.88;;;126.63;;
34142;SDS011;20419;10.658;106.724;2023-04-09T05:08:06;346.08;;;123.95;;
34142;SDS011;20419;10.658;106.724;2023-04-09T05:10:33;355.67;;;128.68;;
34142;SDS011;20419;10.658;106.724;2023-04-09T05:13:00;329.75;;;120.18;;
34142;SDS011;20419;10.658;106.724;2023-04-09T05:15:27;328.52;;;120.93;;
34142;SDS011;20419;10.658;106.724;2023-04-09T05:17:53;322.17;;;118.53;;
34142;SDS011;20419;10.658;106.724;2023-04-09T05:20:20;309.85;;;113.38;;
34142;SDS011;20419;10.658;106.724;2023-04-09T05:22:47;290.63;;;108.43;;
34142;SDS011;20419;10.658;106.724;2023-04-09T05:25:14;284.73;;;107.80;;
34142;SDS011;20419;10.658;106.724;2023-04-09T05:27:41;283.15;;;100.68;;
34142;SDS011;20419;10.658;106.724;2023-04-09T05:30:08;269.05;;;99.68;;
34142;SDS011;20419;10.658;106.724;2023-04-09T05:32:35;250.10;;;90.47;;
34142;SDS011;20419;10.658;106.724;2023-04-09T05:35:02;256.30;;;97.25;;
34142;SDS011;20419;10.658;106.724;2023-04-09T05:37:29;242.02;;;89.15;;
34142;SDS011;20419;10.658;106.724;2023-04-09T05:39:55;235.07;;;86.78;;
34142;SDS011;20419;10.658;106.724;2023-04-09T05:42:22;239.48;;;89.75;;
34142;SDS011;20419;10.658;106.724;2023-04-09T05:44:49;229.95;;;87.68;;
34142;SDS011;20419;10.658;106.724;2023-04-09T05:47:16;228.73;;;84.97;;
34142;SDS011;20419;10.658;106.724;2023-04-09T05:49:43;213.63;;;79.90;;
34142;SDS011;20419;10.658;106.724;2023-04-09T05:52:09;215.18;;;81.55;;
34142;SDS011;20419;10.658;106.724;2023-04-09T05:54:36;216.45;;;80.95;;
34142;SDS011;20419;10.658;106.724;2023-04-09T05:57:03;207.20;;;78.18;;
34142;SDS011;20419;10.658;106.724;2023-04-09T05:59:30;191.05;;;74.07;;
34142;SDS011;20419;10.658;106.724;2023-04-09T06:01:56;186.40;;;71.25;;
34142;SDS011;20419;10.658;106.724;2023-04-09T06:04:23;193.32;;;74.75;;
34142;SDS011;20419;10.658;106.724;2023-04-09T06:06:50;180.48;;;70.95;;
34142;SDS011;20419;10.658;106.724;2023-04-09T06:09:17;180.68;;;72.05;;
34142;SDS011;20419;10.658;106.724;2023-04-09T06:11:44;171.43;;;68.28;;
34142;SDS011;20419;10.658;106.724;2023-04-09T06:14:10;160.18;;;65.70;;
34142;SDS011;20419;10.658;106.724;2023-04-09T06:16:40;160.88;;;65.13;;
34142;SDS011;20419;10.658;106.724;2023-04-09T06:19:07;152.85;;;63.50;;
34142;SDS011;20419;10.658;106.724;2023-04-09T06:21:36;141.50;;;59.47;;
34142;SDS011;20419;10.658;106.724;2023-04-09T06:24:05;139.07;;;60.58;;
34142;SDS011;20419;10.658;106.724;2023-04-09T06:26:32;135.90;;;59.10;;
34142;SDS011;20419;10.658;106.724;2023-04-09T06:28:58;133.23;;;59.13;;
34142;SDS011;20419;10.658;106.724;2023-04-09T06:31:25;126.32;;;55.92;;
34142;SDS011;20419;10.658;106.724;2023-04-09T06:33:52;121.68;;;52.88;;
34142;SDS011;20419;10.658;106.724;2023-04-09T06:36:19;122.43;;;52.03;;
34142;SDS011;20419;10.658;106.724;2023-04-09T06:38:46;120.97;;;50.45;;
34142;SDS011;20419;10.658;106.724;2023-04-09T06:41:12;115.28;;;50.25;;
34142;SDS011;20419;10.658;106.724;2023-04-09T06:43:39;106.50;;;47.10;;
34142;SDS011;20419;10.658;106.724;2023-04-09T06:46:06;102.88;;;45.67;;
34142;SDS011;20419;10.658;106.724;2023-04-09T06:48:33;101.35;;;45.58;;
34142;SDS011;20419;10.658;106.724;2023-04-09T06:51:00;98.50;;;45.67;;
34142;SDS011;20419;10.658;106.724;2023-04-09T06:53:27;88.75;;;42.47;;
34142;SDS011;20419;10.658;106.724;2023-04-09T06:55:54;90.90;;;42.42;;
34142;SDS011;20419;10.658;106.724;2023-04-09T06:58:20;76.47;;;39.88;;
34142;SDS011;20419;10.658;106.724;2023-04-09T07:00:47;84.45;;;38.92;;
34142;SDS011;20419;10.658;106.724;2023-04-09T07:03:14;82.97;;;38.05;;
34142;SDS011;20419;10.658;106.724;2023-04-09T07:05:42;78.20;;;39.35;;
34142;SDS011;20419;10.658;106.724;2023-04-09T07:08:09;72.80;;;35.15;;
34142;SDS011;20419;10.658;106.724;2023-04-09T07:10:37;75.03;;;36.15;;
34142;SDS011;20419;10.658;106.724;2023-04-09T07:13:03;70.32;;;35.63;;
34142;SDS011;20419;10.658;106.724;2023-04-09T07:15:31;68.80;;;34.47;;
34142;SDS011;20419;10.658;106.724;2023-04-09T07:17:58;67.90;;;33.92;;
34142;SDS011;20419;10.658;106.724;2023-04-09T07:20:25;59.92;;;32.38;;
34142;SDS011;20419;10.658;106.724;2023-04-09T07:22:52;62.10;;;32.20;;
34142;SDS011;20419;10.658;106.724;2023-04-09T07:25:19;57.63;;;31.42;;
34142;SDS011;20419;10.658;106.724;2023-04-09T07:27:47;55.88;;;29.70;;
34142;SDS011;20419;10.658;106.724;2023-04-09T07:30:15;54.53;;;29.35;;
34142;SDS011;20419;10.658;106.724;2023-04-09T07:32:42;52.08;;;28.48;;
34142;SDS011;20419;10.658;106.724;2023-04-09T07:35:09;49.47;;;28.70;;
34142;SDS011;20419;10.658;106.724;2023-04-09T07:37:35;48.83;;;27.02;;
34142;SDS011;20419;10.658;106.724;2023-04-09T07:40:02;47.38;;;25.98;;
34142;SDS011;20419;10.658;106.724;2023-04-09T07:42:30;48.15;;;26.67;;
34142;SDS011;20419;10.658;106.724;2023-04-09T07:44:57;48.08;;;26.38;;
34142;SDS011;20419;10.658;106.724;2023-04-09T07:47:24;44.88;;;25.35;;
34142;SDS011;20419;10.658;106.724;2023-04-09T07:49:51;44.17;;;26.08;;
34142;SDS011;20419;10.658;106.724;2023-04-09T07:52:18;41.80;;;24.45;;
34142;SDS011;20419;10.658;106.724;2023-04-09T07:54:45;41.67;;;23.13;;
34142;SDS011;20419;10.658;106.724;2023-04-09T07:57:11;35.30;;;23.42;;
34142;SDS011;20419;10.658;106.724;2023-04-09T07:59:38;36.05;;;22.80;;
34142;SDS011;20419;10.658;106.724;2023-04-09T08:02:05;35.17;;;23.25;;
34142;SDS011;20419;10.658;106.724;2023-04-09T08:04:32;34.90;;;22.17;;
34142;SDS011;20419;10.658;106.724;2023-04-09T08:06:59;33.42;;;22.08;;
34142;SDS011;20419;10.658;106.724;2023-04-09T08:09:26;31.17;;;21.85;;
34142;SDS011;20419;10.658;106.724;2023-04-09T08:11:53;27.50;;;20.13;;
34142;SDS011;20419;10.658;106.724;2023-04-09T08:14:20;31.13;;;20.10;;
34142;SDS011;20419;10.658;106.724;2023-04-09T08:16:47;27.83;;;20.10;;
34142;SDS011;20419;10.658;106.724;2023-04-09T08:19:17;26.17;;;19.50;;
34142;SDS011;20419;10.658;106.724;2023-04-09T08:21:47;28.50;;;19.52;;
34142;SDS011;20419;10.658;106.724;2023-04-09T08:24:14;26.05;;;20.05;;
34142;SDS011;20419;10.658;106.724;2023-04-09T08:26:41;24.92;;;18.38;;
34142;SDS011;20419;10.658;106.724;2023-04-09T08:29:08;26.05;;;19.58;;
34142;SDS011;20419;10.658;106.724;2023-04-09T08:31:35;24.52;;;18.98;;
34142;SDS011;20419;10.658;106.724;2023-04-09T08:34:02;24.52;;;18.55;;
34142;SDS011;20419;10.658;106.724;2023-04-09T08:36:29;24.00;;;18.50;;
34142;SDS011;20419;10.658;106.724;2023-04-09T08:38:57;25.13;;;18.00;;
34142;SDS011;20419;10.658;106.724;2023-04-09T08:41:25;22.25;;;17.70;;
34142;SDS011;20419;10.658;106.724;2023-04-09T08:43:56;24.80;;;17.88;;
34142;SDS011;20419;10.658;106.724;2023-04-09T08:46:23;19.80;;;16.30;;
34142;SDS011;20419;10.658;106.724;2023-04-09T08:48:50;21.38;;;17.23;;
34142;SDS011;20419;10.658;106.724;2023-04-09T08:51:18;21.45;;;16.33;;
34142;SDS011;20419;10.658;106.724;2023-04-09T08:53:46;19.87;;;15.60;;
34142;SDS011;20419;10.658;106.724;2023-04-09T08:56:15;20.67;;;16.58;;
34142;SDS011;20419;10.658;106.724;2023-04-09T08:58:42;19.17;;;15.75;;
34142;SDS011;20419;10.658;106.724;2023-04-09T09:01:26;22.05;;;16.13;;
34142;SDS011;20419;10.658;106.724;2023-04-09T09:03:54;18.52;;;15.77;;
34142;SDS011;20419;10.658;106.724;2023-04-09T09:06:28;17.88;;;15.52;;
34142;SDS011;20419;10.658;106.724;2023-04-09T09:09:15;17.75;;;15.05;;
34142;SDS011;20419;10.658;106.724;2023-04-09T09:11:44;19.58;;;16.25;;
34142;SDS011;20419;10.658;106.724;2023-04-09T09:14:12;19.23;;;16.23;;
34142;SDS011;20419;10.658;106.724;2023-04-09T09:16:39;17.10;;;15.30;;
34142;SDS011;20419;10.658;106.724;2023-04-09T09:19:13;20.08;;;15.85;;
34142;SDS011;20419;10.658;106.724;2023-04-09T09:21:57;17.23;;;14.48;;
34142;SDS011;20419;10.658;106.724;2023-04-09T09:24:24;16.52;;;14.23;;
34142;SDS011;20419;10.658;106.724;2023-04-09T09:26:53;18.10;;;14.75;;
34142;SDS011;20419;10.658;106.724;2023-04-09T09:29:21;16.45;;;14.38;;
34142;SDS011;20419;10.658;106.724;2023-04-09T09:31:49;16.38;;;14.65;;
34142;SDS011;20419;10.658;106.724;2023-04-09T09:34:17;17.05;;;14.02;;
34142;SDS011;20419;10.658;106.724;2023-04-09T09:36:45;16.30;;;14.07;;
34142;SDS011;20419;10.658;106.724;2023-04-09T09:39:12;15.52;;;13.52;;
34142;SDS011;20419;10.658;106.724;2023-04-09T09:41:41;15.27;;;13.68;;
34142;SDS011;20419;10.658;106.724;2023-04-09T09:44:09;15.45;;;13.85;;
34142;SDS011;20419;10.658;106.724;2023-04-09T09:46:37;15.77;;;14.10;;
34142;SDS011;20419;10.658;106.724;2023-04-09T09:49:05;16.70;;;13.48;;
34142;SDS011;20419;10.658;106.724;2023-04-09T09:51:32;14.80;;;13.18;;
34142;SDS011;20419;10.658;106.724;2023-04-09T09:54:01;14.40;;;12.90;;
34142;SDS011;20419;10.658;106.724;2023-04-09T09:56:33;14.85;;;13.38;;
34142;SDS011;20419;10.658;106.724;2023-04-09T09:59:01;14.70;;;13.20;;
34142;SDS011;20419;10.658;106.724;2023-04-09T10:01:32;14.52;;;13.02;;
34142;SDS011;20419;10.658;106.724;2023-04-09T10:04:00;13.95;;;12.55;;
34142;SDS011;20419;10.658;106.724;2023-04-09T10:06:27;14.32;;;12.38;;
34142;SDS011;20419;10.658;106.724;2023-04-09T10:08:58;14.60;;;12.65;;
34142;SDS011;20419;10.658;106.724;2023-04-09T10:11:27;14.18;;;12.68;;
34142;SDS011;20419;10.658;106.724;2023-04-09T10:13:57;13.85;;;12.35;;
34142;SDS011;20419;10.658;106.724;2023-04-09T10:16:25;13.93;;;12.48;;
34142;SDS011;20419;10.658;106.724;2023-04-09T10:18:53;14.77;;;13.18;;
34142;SDS011;20419;10.658;106.724;2023-04-09T10:23:59;12.85;;;11.55;;
34142;SDS011;20419;10.658;106.724;2023-04-09T10:26:32;14.48;;;12.63;;
34142;SDS011;20419;10.658;106.724;2023-04-09T10:29:09;13.68;;;12.05;;
34142;SDS011;20419;10.658;106.724;2023-04-09T10:31:51;13.85;;;12.55;;
34142;SDS011;20419;10.658;106.724;2023-04-09T10:34:22;13.75;;;12.35;;
34142;SDS011;20419;10.658;106.724;2023-04-09T10:36:50;13.50;;;12.10;;
34142;SDS011;20419;10.658;106.724;2023-04-09T10:39:17;14.50;;;12.40;;
34142;SDS011;20419;10.658;106.724;2023-04-09T10:41:45;12.75;;;11.32;;
34142;SDS011;20419;10.658;106.724;2023-04-09T10:44:20;13.15;;;11.85;;
34142;SDS011;20419;10.658;106.724;2023-04-09T10:46:46;12.77;;;11.43;;
34142;SDS011;20419;10.658;106.724;2023-04-09T10:49:15;13.00;;;11.75;;
34142;SDS011;20419;10.658;106.724;2023-04-09T10:51:52;13.60;;;12.30;;
34142;SDS011;20419;10.658;106.724;2023-04-09T10:59:40;13.63;;;12.23;;
34142;SDS011;20419;10.658;106.724;2023-04-09T11:02:08;13.15;;;11.85;;
34142;SDS011;20419;10.658;106.724;2023-04-09T11:05:01;13.30;;;12.00;;
34142;SDS011;20419;10.658;106.724;2023-04-09T11:07:26;13.10;;;11.73;;
34142;SDS011;20419;10.658;106.724;2023-04-09T11:09:53;13.48;;;12.07;;
34142;SDS011;20419;10.658;106.724;2023-04-09T11:12:20;13.07;;;11.77;;
34142;SDS011;20419;10.658;106.724;2023-04-09T11:14:47;12.38;;;11.18;;
34142;SDS011;20419;10.658;106.724;2023-04-09T11:17:13;13.05;;;11.75;;
34142;SDS011;20419;10.658;106.724;2023-04-09T11:19:40;12.88;;;11.55;;
34142;SDS011;20419;10.658;106.724;2023-04-09T11:22:07;13.07;;;11.88;;
34142;SDS011;20419;10.658;106.724;2023-04-09T11:24:40;13.02;;;11.73;;
34142;SDS011;20419;10.658;106.724;2023-04-09T11:27:07;12.90;;;11.10;;
34142;SDS011;20419;10.658;106.724;2023-04-09T11:29:34;13.20;;;11.90;;
34142;SDS011;20419;10.658;106.724;2023-04-09T11:32:01;13.27;;;11.98;;
34142;SDS011;20419;10.658;106.724;2023-04-09T11:34:32;12.43;;;11.23;;
34142;SDS011;20419;10.658;106.724;2023-04-09T11:37:01;12.35;;;11.15;;
34142;SDS011;20419;10.658;106.724;2023-04-09T11:39:36;12.27;;;10.93;;
34142;SDS011;20419;10.658;106.724;2023-04-09T11:42:03;11.75;;;10.63;;
34142;SDS011;20419;10.658;106.724;2023-04-09T11:44:30;12.95;;;11.65;;
34142;SDS011;20419;10.658;106.724;2023-04-09T11:46:57;12.40;;;11.20;;
34142;SDS011;20419;10.658;106.724;2023-04-09T11:49:24;11.55;;;10.45;;
34142;SDS011;20419;10.658;106.724;2023-04-09T11:51:51;12.48;;;11.23;;
34142;SDS011;20419;10.658;106.724;2023-04-09T11:54:18;13.13;;;11.82;;
34142;SDS011;20419;10.658;106.724;2023-04-09T11:56:45;12.23;;;11.02;;
34142;SDS011;20419;10.658;106.724;2023-04-09T11:59:20;13.82;;;12.38;;
34142;SDS011;20419;10.658;106.724;2023-04-09T12:01:50;11.55;;;10.35;;
34142;SDS011;20419;10.658;106.724;2023-04-09T12:04:19;12.70;;;11.50;;
34142;SDS011;20419;10.658;106.724;2023-04-09T12:06:46;12.10;;;10.90;;
34142;SDS011;20419;10.658;106.724;2023-04-09T12:09:13;12.10;;;10.90;;
34142;SDS011;20419;10.658;106.724;2023-04-09T12:11:43;12.43;;;11.23;;
34142;SDS011;20419;10.658;106.724;2023-04-09T12:14:14;10.98;;;9.88;;
34142;SDS011;20419;10.658;106.724;2023-04-09T12:16:41;12.82;;;11.48;;
34142;SDS011;20419;10.658;106.724;2023-04-09T12:19:09;10.97;;;9.87;;
34142;SDS011;20419;10.658;106.724;2023-04-09T12:21:52;11.82;;;10.48;;
34142;SDS011;20419;10.658;106.724;2023-04-09T12:24:21;12.13;;;10.93;;
34142;SDS011;20419;10.658;106.724;2023-04-09T12:26:48;12.43;;;10.63;;
34142;SDS011;20419;10.658;106.724;2023-04-09T12:29:16;11.95;;;10.85;;
34142;SDS011;20419;10.658;106.724;2023-04-09T12:31:43;12.68;;;11.45;;
34142;SDS011;20419;10.658;106.724;2023-04-09T12:34:10;13.23;;;11.13;;
34142;SDS011;20419;10.658;106.724;2023-04-09T12:36:37;12.75;;;11.55;;
34142;SDS011;20419;10.658;106.724;2023-04-09T12:39:06;12.07;;;10.98;;
34142;SDS011;20419;10.658;106.724;2023-04-09T12:41:32;11.27;;;10.18;;
34142;SDS011;20419;10.658;106.724;2023-04-09T12:43:59;11.65;;;10.20;;
34142;SDS011;20419;10.658;106.724;2023-04-09T12:46:29;11.32;;;10.13;;
34142;SDS011;20419;10.658;106.724;2023-04-09T12:48:56;11.80;;;10.60;;
34142;SDS011;20419;10.658;106.724;2023-04-09T12:51:23;11.30;;;10.30;;
34142;SDS011;20419;10.658;106.724;2023-04-09T12:53:50;11.02;;;10.02;;
34142;SDS011;20419;10.658;106.724;2023-04-09T12:56:17;11.90;;;10.75;;
34142;SDS011;20419;10.658;106.724;2023-04-09T12:58:44;11.00;;;9.90;;
34142;SDS011;20419;10.658;106.724;2023-04-09T13:01:10;10.57;;;9.57;;
34142;SDS011;20419;10.658;106.724;2023-04-09T13:03:37;11.98;;;10.88;;
34142;SDS011;20419;10.658;106.724;2023-04-09T13:06:05;10.57;;;9.43;;
34142;SDS011;20419;10.658;106.724;2023-04-09T13:08:32;10.43;;;9.43;;
34142;SDS011;20419;10.658;106.724;2023-04-09T13:10:59;10.80;;;9.80;;
34142;SDS011;20419;10.658;106.724;2023-04-09T13:13:25;12.20;;;10.90;;
34142;SDS011;20419;10.658;106.724;2023-04-09T13:15:53;11.30;;;10.20;;
34142;SDS011;20419;10.658;106.724;2023-04-09T13:18:19;11.20;;;10.10;;
34142;SDS011;20419;10.658;106.724;2023-04-09T13:20:46;11.90;;;10.70;;
34142;SDS011;20419;10.658;106.724;2023-04-09T13:23:13;11.05;;;9.95;;
34142;SDS011;20419;10.658;106.724;2023-04-09T13:25:40;10.90;;;9.80;;
34142;SDS011;20419;10.658;106.724;2023-04-09T13:28:07;10.60;;;9.50;;
34142;SDS011;20419;10.658;106.724;2023-04-09T13:30:34;10.35;;;9.35;;
34142;SDS011;20419;10.658;106.724;2023-04-09T13:33:00;10.73;;;9.73;;
34142;SDS011;20419;10.658;106.724;2023-04-09T13:35:27;10.38;;;9.38;;
34142;SDS011;20419;10.658;106.724;2023-04-09T13:37:54;11.60;;;9.75;;
34142;SDS011;20419;10.658;106.724;2023-04-09T13:40:21;11.27;;;10.10;;
34142;SDS011;20419;10.658;106.724;2023-04-09T13:42:48;11.13;;;10.02;;
34142;SDS011;20419;10.658;106.724;2023-04-09T13:45:14;10.75;;;9.65;;
34142;SDS011;20419;10.658;106.724;2023-04-09T13:47:42;11.90;;;10.70;;
34142;SDS011;20419;10.658;106.724;2023-04-09T13:50:09;11.70;;;10.57;;
34142;SDS011;20419;10.658;106.724;2023-04-09T13:52:37;11.23;;;10.18;;
34142;SDS011;20419;10.658;106.724;2023-04-09T13:55:04;11.75;;;10.65;;
34142;SDS011;20419;10.658;106.724;2023-04-09T13:57:31;11.77;;;10.57;;
34142;SDS011;20419;10.658;106.724;2023-04-09T13:59:58;11.07;;;10.05;;
34142;SDS011;20419;10.658;106.724;2023-04-09T14:02:30;10.18;;;9.18;;
34142;SDS011;20419;10.658;106.724;2023-04-09T14:04:57;10.10;;;9.10;;
34142;SDS011;20419;10.658;106.724;2023-04-09T14:07:24;10.15;;;9.15;;
34142;SDS011;20419;10.658;106.724;2023-04-09T14:09:50;10.27;;;9.27;;
34142;SDS011;20419;10.658;106.724;2023-04-09T14:12:17;10.10;;;9.10;;
34142;SDS011;20419;10.658;106.724;2023-04-09T14:14:44;10.00;;;9.00;;
34142;SDS011;20419;10.658;106.724;2023-04-09T14:17:11;10.98;;;9.95;;
34142;SDS011;20419;10.658;106.724;2023-04-09T14:19:38;10.07;;;9.07;;
34142;SDS011;20419;10.658;106.724;2023-04-09T14:22:05;10.52;;;9.52;;
34142;SDS011;20419;10.658;106.724;2023-04-09T14:24:33;11.97;;;10.10;;